Time;durP1;ratioP1;P1;durP2;ratioP2;P2;SDS_P1;SDS_P2;PMS_P1;PMS_P2;Temp;Humidity;BMP_temperature;BMP_pressure;BME280_temperature;BME280_humidity;BME280_pressure;Samples;Min_cycle;Max_cycle;Signal;HPM_P1;HPM_P2
2021/05/16 00:00:52;;;;;;;1.42;1.27;;;15.60;99.90;;;;;;5069373;28;20214;-71
2021/05/16 00:03:18;;;;;;;2.72;1.35;;;15.60;99.90;;;;;;5074396;28;20209;-71
2021/05/16 00:05:45;;;;;;;2.20;1.10;;;15.60;99.90;;;;;;5068925;28;20202;-72
2021/05/16 00:08:12;;;;;;;2.00;1.40;;;15.60;99.90;;;;;;5073247;28;20202;-71
2021/05/16 00:10:38;;;;;;;2.03;1.30;;;15.60;99.90;;;;;;5068480;28;20547;-70
2021/05/16 00:13:05;;;;;;;3.30;1.30;;;15.50;99.90;;;;;;5072692;28;20197;-72
2021/05/16 00:15:32;;;;;;;2.45;1.40;;;15.50;99.90;;;;;;5074262;28;20202;-70
2021/05/16 00:17:59;;;;;;;2.75;1.48;;;15.50;99.90;;;;;;5054884;28;20199;-70
2021/05/16 00:20:28;;;;;;;2.17;1.40;;;15.50;99.90;;;;;;5058715;28;20222;-70
2021/05/16 00:22:55;;;;;;;1.90;1.45;;;15.50;99.90;;;;;;5067836;28;20558;-70
2021/05/16 00:25:23;;;;;;;1.70;1.27;;;15.50;99.90;;;;;;5072999;28;20209;-69
2021/05/16 00:27:49;;;;;;;3.13;1.30;;;15.50;99.90;;;;;;5055272;28;20206;-69
2021/05/16 00:30:18;;;;;;;2.20;1.75;;;15.50;99.90;;;;;;5054360;28;20217;-70
2021/05/16 00:32:45;;;;;;;2.63;1.70;;;15.40;99.90;;;;;;5056170;28;20190;-70
2021/05/16 00:35:15;;;;;;;1.92;1.75;;;15.40;99.90;;;;;;5054383;28;20648;-70
2021/05/16 00:37:42;;;;;;;1.95;1.05;;;15.40;99.90;;;;;;5057830;28;20214;-70
2021/05/16 00:40:09;;;;;;;4.70;1.30;;;15.40;99.90;;;;;;5062493;28;20205;-70
2021/05/16 00:42:35;;;;;;;2.33;1.25;;;15.40;99.90;;;;;;5072735;28;20523;-70
2021/05/16 00:45:06;;;;;;;1.88;1.42;;;15.40;99.90;;;;;;5071430;28;20571;-70
2021/05/16 00:47:32;;;;;;;3.05;1.75;;;15.30;99.90;;;;;;5072709;28;20202;-70
2021/05/16 00:49:58;;;;;;;3.80;1.40;;;15.30;99.90;;;;;;5055049;28;20703;-71
2021/05/16 00:52:27;;;;;;;3.22;1.67;;;15.30;99.90;;;;;;5064921;28;20198;-71
2021/05/16 00:54:54;;;;;;;2.78;1.38;;;15.30;99.90;;;;;;5060687;28;20631;-69
2021/05/16 00:57:21;;;;;;;2.78;1.40;;;15.20;99.90;;;;;;5066170;28;20285;-70
2021/05/16 00:59:48;;;;;;;1.50;1.40;;;15.30;99.90;;;;;;5073168;28;20213;-71
2021/05/16 01:02:14;;;;;;;2.22;1.52;;;15.30;99.90;;;;;;5071405;28;20709;-71
2021/05/16 01:04:41;;;;;;;3.58;1.40;;;15.30;99.90;;;;;;5067872;28;20213;-71
2021/05/16 01:07:08;;;;;;;2.50;1.73;;;15.30;99.90;;;;;;5053370;28;20203;-70
2021/05/16 01:09:35;;;;;;;4.28;1.30;;;15.30;99.90;;;;;;5061389;28;20398;-70
2021/05/16 01:12:04;;;;;;;3.80;2.03;;;15.20;99.90;;;;;;5056555;28;20580;-70
2021/05/16 01:14:33;;;;;;;4.05;1.52;;;15.20;99.90;;;;;;5066079;28;20251;-71
2021/05/16 01:16:59;;;;;;;2.95;1.38;;;15.20;99.90;;;;;;5061788;28;20207;-71
2021/05/16 01:19:26;;;;;;;3.85;2.35;;;15.20;99.90;;;;;;5071481;28;20205;-70
2021/05/16 01:21:56;;;;;;;2.30;1.42;;;15.20;99.90;;;;;;5062290;28;20205;-71
2021/05/16 01:24:24;;;;;;;2.55;1.60;;;15.20;99.90;;;;;;5067922;28;20202;-70
2021/05/16 01:26:51;;;;;;;3.42;1.55;;;15.10;99.90;;;;;;5063935;28;20261;-70
2021/05/16 01:29:18;;;;;;;2.85;1.52;;;15.10;99.90;;;;;;5052673;28;20199;-70
2021/05/16 01:31:45;;;;;;;1.92;1.40;;;15.10;99.90;;;;;;5054895;28;20202;-71
2021/05/16 01:34:12;;;;;;;2.90;1.45;;;15.10;99.90;;;;;;5064632;28;20569;-70
2021/05/16 01:36:39;;;;;;;1.50;1.20;;;15.10;99.90;;;;;;5069754;28;20672;-70
2021/05/16 01:39:10;;;;;;;2.30;1.48;;;15.10;99.90;;;;;;5071291;28;20547;-70
2021/05/16 01:41:36;;;;;;;2.20;1.25;;;15.10;99.90;;;;;;5061141;28;20198;-70
2021/05/16 01:44:03;;;;;;;3.17;1.73;;;15.10;99.90;;;;;;5066578;28;20222;-70
2021/05/16 01:46:30;;;;;;;1.90;1.45;;;15.00;99.90;;;;;;5059856;28;20201;-71
2021/05/16 01:48:56;;;;;;;2.42;1.55;;;15.00;99.90;;;;;;5071544;28;20202;-70
2021/05/16 01:51:23;;;;;;;4.60;1.67;;;15.00;99.90;;;;;;5070873;28;20206;-71
2021/05/16 01:53:49;;;;;;;2.63;1.52;;;15.00;99.90;;;;;;5067629;28;20198;-71
2021/05/16 01:56:23;;;;;;;4.80;1.63;;;15.00;99.90;;;;;;5064961;28;20191;-71
2021/05/16 01:58:50;;;;;;;2.25;1.40;;;15.00;99.90;;;;;;5052585;28;20252;-71
2021/05/16 02:01:17;;;;;;;2.55;1.40;;;15.00;99.90;;;;;;5061003;28;20227;-71
2021/05/16 02:03:44;;;;;;;6.65;2.95;;;15.00;99.90;;;;;;5071512;28;20209;-71
2021/05/16 02:06:11;;;;;;;5.55;1.50;;;15.00;99.90;;;;;;5070184;28;20222;-71
2021/05/16 02:08:39;;;;;;;6.60;2.20;;;15.00;99.90;;;;;;5072150;28;20202;-71
2021/05/16 02:11:05;;;;;;;2.88;1.60;;;15.00;99.90;;;;;;5070693;28;20209;-71
2021/05/16 02:13:35;;;;;;;2.22;1.20;;;15.00;99.90;;;;;;5056131;28;20202;-71
2021/05/16 02:16:02;;;;;;;2.40;1.67;;;14.90;99.90;;;;;;5064686;28;20201;-71
2021/05/16 02:18:28;;;;;;;3.45;1.50;;;14.90;99.90;;;;;;5071853;28;20729;-71
2021/05/16 02:20:54;;;;;;;4.60;1.48;;;14.90;99.90;;;;;;5068522;28;20237;-71
2021/05/16 02:23:20;;;;;;;3.60;1.95;;;14.90;99.90;;;;;;5060604;28;20218;-71
2021/05/16 02:25:49;;;;;;;5.85;2.00;;;14.90;99.90;;;;;;5066035;28;20214;-70
2021/05/16 02:28:15;;;;;;;4.15;1.70;;;14.90;99.90;;;;;;5058168;28;20199;-70
2021/05/16 02:30:43;;;;;;;3.55;1.60;;;14.90;99.90;;;;;;5064575;28;20194;-70
2021/05/16 02:33:09;;;;;;;4.68;2.03;;;14.90;99.90;;;;;;5055610;28;20255;-70
2021/05/16 02:35:35;;;;;;;5.13;1.75;;;14.80;99.90;;;;;;5071474;28;20239;-70
2021/05/16 02:38:02;;;;;;;4.75;1.92;;;14.80;99.90;;;;;;5070682;28;20210;-70
2021/05/16 02:40:28;;;;;;;2.72;1.60;;;14.80;99.90;;;;;;5064453;28;20260;-70
2021/05/16 02:42:54;;;;;;;3.90;1.98;;;14.80;99.90;;;;;;5067633;28;20214;-71
2021/05/16 02:45:21;;;;;;;2.15;1.60;;;14.70;99.90;;;;;;5067944;28;20198;-70
2021/05/16 02:47:48;;;;;;;2.88;1.35;;;14.80;99.90;;;;;;5071639;28;20194;-71
2021/05/16 02:50:15;;;;;;;6.15;1.85;;;14.70;99.90;;;;;;5057683;28;20229;-71
2021/05/16 02:52:42;;;;;;;3.83;1.55;;;14.70;99.90;;;;;;5050512;28;20195;-70
2021/05/16 02:55:09;;;;;;;6.20;1.73;;;14.70;99.90;;;;;;5060795;28;20263;-71
2021/05/16 02:57:36;;;;;;;4.20;1.60;;;14.70;99.90;;;;;;5053415;28;20190;-71
2021/05/16 03:00:04;;;;;;;5.65;1.90;;;14.70;99.90;;;;;;5050888;28;20827;-70
2021/05/16 03:02:30;;;;;;;7.70;2.10;;;14.70;99.90;;;;;;5070612;28;20598;-70
2021/05/16 03:04:57;;;;;;;4.55;1.80;;;14.70;99.90;;;;;;5065126;28;20205;-70
2021/05/16 03:07:23;;;;;;;4.50;1.73;;;14.70;99.90;;;;;;5056345;28;20673;-71
2021/05/16 03:09:49;;;;;;;6.88;1.83;;;14.70;99.90;;;;;;5070396;28;20208;-71
2021/05/16 03:12:15;;;;;;;4.00;3.03;;;14.60;99.90;;;;;;5067624;28;20206;-70
2021/05/16 03:14:42;;;;;;;3.50;1.50;;;14.60;99.90;;;;;;5058441;28;20668;-70
2021/05/16 03:17:08;;;;;;;3.22;1.30;;;14.60;99.90;;;;;;5067855;28;20206;-71
2021/05/16 03:19:34;;;;;;;4.00;1.85;;;14.60;99.90;;;;;;5066962;28;20237;-71
2021/05/16 03:22:02;;;;;;;2.72;1.30;;;14.60;99.90;;;;;;5070206;28;20641;-71
2021/05/16 03:24:28;;;;;;;4.00;1.80;;;14.60;99.90;;;;;;5062515;28;20303;-71
2021/05/16 03:26:54;;;;;;;4.78;2.83;;;14.60;99.90;;;;;;5058630;28;20201;-71
2021/05/16 03:29:21;;;;;;;5.60;1.77;;;14.60;99.90;;;;;;5055619;28;20209;-71
2021/05/16 03:31:48;;;;;;;5.03;1.73;;;14.60;99.90;;;;;;5068786;28;20228;-70
2021/05/16 03:34:14;;;;;;;6.25;2.45;;;14.60;99.90;;;;;;5069973;28;20194;-71
2021/05/16 03:36:40;;;;;;;5.20;1.85;;;14.50;99.90;;;;;;5058495;28;20286;-70
2021/05/16 03:39:08;;;;;;;6.72;2.15;;;14.50;99.90;;;;;;5065967;28;20221;-70
2021/05/16 03:41:34;;;;;;;4.97;2.25;;;14.50;99.90;;;;;;5067599;28;20203;-70
2021/05/16 03:44:01;;;;;;;4.47;2.22;;;14.50;99.90;;;;;;5071001;28;20562;-70
2021/05/16 03:46:27;;;;;;;4.07;2.08;;;14.50;99.90;;;;;;5070353;28;20538;-70
2021/05/16 03:48:53;;;;;;;5.93;1.83;;;14.40;99.90;;;;;;5068510;28;20198;-71
2021/05/16 03:51:19;;;;;;;6.53;1.83;;;14.40;99.90;;;;;;5068796;28;20213;-71
2021/05/16 03:53:46;;;;;;;5.20;2.33;;;14.40;99.90;;;;;;5063191;28;20509;-71
2021/05/16 03:56:13;;;;;;;4.80;1.80;;;14.30;99.90;;;;;;5061586;28;20252;-70
2021/05/16 04:02:01;;;;;;;4.18;1.60;;;14.30;99.90;;;;;;5051824;28;20224;-71
2021/05/16 04:04:27;;;;;;;4.63;1.38;;;14.30;99.90;;;;;;5052749;28;20666;-71
2021/05/16 04:06:53;;;;;;;4.30;1.60;;;14.30;99.90;;;;;;5061359;28;20627;-71
2021/05/16 04:09:19;;;;;;;4.65;2.10;;;14.30;99.90;;;;;;5050224;28;20720;-72
2021/05/16 04:11:46;;;;;;;2.55;1.38;;;14.20;99.90;;;;;;5050469;28;20222;-72
2021/05/16 04:14:12;;;;;;;3.85;1.92;;;14.20;99.90;;;;;;5050640;28;20198;-70
2021/05/16 04:16:38;;;;;;;3.60;1.45;;;14.20;99.90;;;;;;5071150;28;20201;-71
2021/05/16 04:19:05;;;;;;;4.57;1.58;;;14.20;99.90;;;;;;5060259;28;20204;-71
2021/05/16 04:21:31;;;;;;;4.40;1.95;;;14.30;99.90;;;;;;5069979;28;20225;-71
2021/05/16 04:23:57;;;;;;;6.55;1.52;;;14.30;99.90;;;;;;5063782;28;20229;-70
2021/05/16 04:26:23;;;;;;;4.45;1.90;;;14.30;99.90;;;;;;5055297;28;20229;-70
2021/05/16 04:28:50;;;;;;;3.20;2.13;;;14.20;99.90;;;;;;5053574;28;20256;-70
2021/05/16 04:31:16;;;;;;;4.25;1.77;;;14.20;99.90;;;;;;5057667;28;20209;-70
2021/05/16 04:33:43;;;;;;;5.63;2.05;;;14.20;99.90;;;;;;5062988;28;20194;-70
2021/05/16 04:36:09;;;;;;;2.90;1.48;;;14.20;99.90;;;;;;5057666;28;20191;-69
2021/05/16 04:38:35;;;;;;;5.40;1.90;;;14.20;99.90;;;;;;5055700;28;20685;-71
2021/05/16 04:41:02;;;;;;;7.28;1.83;;;14.30;99.90;;;;;;5072440;28;20370;-71
2021/05/16 04:43:28;;;;;;;4.82;2.00;;;14.30;99.90;;;;;;5073671;28;20308;-71
2021/05/16 04:45:55;;;;;;;2.75;1.55;;;14.20;99.90;;;;;;5057381;28;20202;-71
2021/05/16 04:48:21;;;;;;;4.63;2.00;;;14.20;99.90;;;;;;5053589;28;20199;-71
2021/05/16 04:50:47;;;;;;;7.43;2.08;;;14.20;99.90;;;;;;5061257;28;20202;-71
2021/05/16 04:53:13;;;;;;;4.38;1.65;;;14.20;99.90;;;;;;5054774;28;20195;-71
2021/05/16 04:55:40;;;;;;;5.78;2.10;;;14.20;99.90;;;;;;5063806;28;20198;-71
2021/05/16 04:58:06;;;;;;;3.88;2.05;;;14.20;99.90;;;;;;5072564;28;20264;-71
2021/05/16 05:00:32;;;;;;;7.80;2.28;;;14.20;99.90;;;;;;5055682;28;21841;-71
2021/05/16 05:02:59;;;;;;;2.92;1.45;;;14.20;99.90;;;;;;5071049;28;20230;-71
2021/05/16 05:05:25;;;;;;;3.03;1.63;;;14.20;99.90;;;;;;5062511;28;20286;-71
2021/05/16 05:07:51;;;;;;;5.47;1.83;;;14.20;99.90;;;;;;5067681;28;20251;-71
2021/05/16 05:10:18;;;;;;;3.45;1.73;;;14.30;99.90;;;;;;5067274;28;20190;-71
2021/05/16 05:12:44;;;;;;;5.28;1.75;;;14.20;99.90;;;;;;5072272;28;20202;-71
2021/05/16 05:15:11;;;;;;;3.55;1.40;;;14.20;99.90;;;;;;5070517;28;20194;-71
2021/05/16 05:17:40;;;;;;;4.10;1.90;;;14.20;99.90;;;;;;5068086;28;20207;-71
2021/05/16 05:20:08;;;;;;;4.13;1.50;;;14.20;99.90;;;;;;5052919;28;20610;-71
2021/05/16 05:22:34;;;;;;;7.40;2.13;;;14.20;99.90;;;;;;5060839;28;20195;-71
2021/05/16 05:25:01;;;;;;;10.07;2.20;;;14.20;99.90;;;;;;5060284;28;20199;-71
2021/05/16 05:27:27;;;;;;;4.80;1.60;;;14.30;99.90;;;;;;5059269;28;20275;-71
2021/05/16 05:29:53;;;;;;;2.30;1.48;;;14.40;99.90;;;;;;5060832;28;20210;-71
2021/05/16 05:32:19;;;;;;;5.72;1.65;;;14.50;99.90;;;;;;5062553;28;20197;-71
2021/05/16 05:34:45;;;;;;;4.93;1.63;;;14.60;99.90;;;;;;5066069;28;20209;-71
2021/05/16 05:37:12;;;;;;;5.32;1.85;;;14.80;99.90;;;;;;5056402;28;20198;-71
2021/05/16 05:39:39;;;;;;;5.47;1.45;;;14.90;99.90;;;;;;5052759;28;20198;-72
2021/05/16 05:42:05;;;;;;;5.78;1.80;;;15.00;99.90;;;;;;5057976;28;20196;-71
2021/05/16 05:44:32;;;;;;;3.33;1.88;;;15.00;99.90;;;;;;5052024;28;20241;-71
2021/05/16 05:46:58;;;;;;;4.10;1.85;;;15.00;99.90;;;;;;5067723;28;20202;-71
2021/05/16 05:49:24;;;;;;;3.85;1.65;;;15.00;99.90;;;;;;5061278;28;20191;-70
2021/05/16 05:51:50;;;;;;;4.65;2.35;;;15.00;99.90;;;;;;5062216;28;20198;-70
2021/05/16 05:54:17;;;;;;;5.68;2.00;;;14.90;99.90;;;;;;5060083;28;20201;-71
2021/05/16 05:56:44;;;;;;;2.88;1.90;;;14.80;99.90;;;;;;5054747;28;20206;-70
2021/05/16 05:59:10;;;;;;;5.30;2.05;;;14.80;99.90;;;;;;5050578;28;20198;-70
2021/05/16 06:01:37;;;;;;;5.78;1.88;;;14.70;99.90;;;;;;5063355;28;20209;-70
2021/05/16 06:04:03;;;;;;;4.88;2.20;;;14.70;99.90;;;;;;5063525;28;20218;-70
2021/05/16 06:06:29;;;;;;;4.40;2.13;;;14.70;99.90;;;;;;5063369;28;20248;-70
2021/05/16 06:08:55;;;;;;;6.93;2.13;;;14.70;99.90;;;;;;5070776;28;20198;-70
2021/05/16 06:11:22;;;;;;;5.90;2.28;;;14.70;99.90;;;;;;5061961;28;20218;-70
2021/05/16 06:13:48;;;;;;;6.20;2.53;;;14.60;99.90;;;;;;5054135;28;20197;-70
2021/05/16 06:16:15;;;;;;;3.78;2.17;;;14.60;99.90;;;;;;5052521;28;20268;-69
2021/05/16 06:18:41;;;;;;;9.20;3.08;;;14.60;99.90;;;;;;5064997;28;20198;-70
2021/05/16 06:21:07;;;;;;;4.25;2.55;;;14.60;99.90;;;;;;5070371;28;20709;-69
2021/05/16 06:23:36;;;;;;;6.45;2.67;;;14.60;99.90;;;;;;5054740;28;20695;-70
2021/05/16 06:26:03;;;;;;;5.45;2.58;;;14.60;99.90;;;;;;5068938;28;20194;-70
2021/05/16 06:28:30;;;;;;;5.43;2.40;;;14.60;99.90;;;;;;5070854;28;20210;-69
2021/05/16 06:30:56;;;;;;;7.45;1.95;;;14.60;99.90;;;;;;5067834;28;20327;-70
2021/05/16 06:33:22;;;;;;;5.35;2.80;;;14.60;99.90;;;;;;5069328;28;20190;-70
2021/05/16 06:35:48;;;;;;;6.57;2.35;;;14.70;99.90;;;;;;5064881;28;20194;-69
2021/05/16 06:38:15;;;;;;;4.55;2.05;;;14.70;99.90;;;;;;5068894;28;20206;-71
2021/05/16 06:40:41;;;;;;;6.13;1.92;;;14.70;99.90;;;;;;5059363;28;20198;-70
2021/05/16 06:43:08;;;;;;;3.88;2.30;;;14.70;99.90;;;;;;5051710;28;20222;-70
2021/05/16 06:45:35;;;;;;;11.10;2.58;;;14.70;99.90;;;;;;5058671;28;20707;-70
2021/05/16 06:48:01;;;;;;;2.10;1.90;;;14.70;99.90;;;;;;5055553;28;20649;-70
2021/05/16 06:50:28;;;;;;;9.50;2.83;;;14.70;99.90;;;;;;5051545;28;20198;-69
2021/05/16 06:52:54;;;;;;;5.53;2.13;;;14.70;99.90;;;;;;5053358;28;20534;-69
2021/05/16 06:55:20;;;;;;;5.68;2.65;;;14.80;99.90;;;;;;5066774;28;20628;-69
2021/05/16 06:57:46;;;;;;;4.75;2.65;;;14.80;99.90;;;;;;5056268;28;20198;-70
2021/05/16 07:00:14;;;;;;;6.40;2.83;;;14.80;99.90;;;;;;5053559;28;20202;-69
2021/05/16 07:02:41;;;;;;;5.93;2.42;;;14.80;99.90;;;;;;5054039;28;20198;-69
2021/05/16 07:05:09;;;;;;;5.20;2.67;;;14.80;99.90;;;;;;5056905;28;20194;-69
2021/05/16 07:07:35;;;;;;;5.53;2.35;;;14.80;99.90;;;;;;5052917;28;20199;-69
2021/05/16 07:10:01;;;;;;;7.20;3.15;;;14.80;99.90;;;;;;5065052;28;20194;-69
2021/05/16 07:12:27;;;;;;;6.07;2.55;;;14.90;99.90;;;;;;5067005;28;20212;-69
2021/05/16 07:14:53;;;;;;;7.22;2.83;;;15.10;99.90;;;;;;5068088;28;20224;-69
2021/05/16 07:17:20;;;;;;;4.97;2.05;;;15.20;99.90;;;;;;5071189;28;20630;-70
2021/05/16 07:19:47;;;;;;;5.38;2.90;;;15.30;99.90;;;;;;5057981;28;20273;-70
2021/05/16 07:22:13;;;;;;;6.57;3.58;;;15.30;99.90;;;;;;5061057;28;20197;-69
2021/05/16 07:24:39;;;;;;;10.35;3.45;;;15.40;99.90;;;;;;5061068;28;20320;-70
2021/05/16 07:27:06;;;;;;;3.50;3.17;;;15.40;99.90;;;;;;5051142;28;20203;-70
2021/05/16 07:29:32;;;;;;;4.97;3.10;;;15.40;99.90;;;;;;5051311;28;20195;-70
2021/05/16 07:31:58;;;;;;;4.82;2.85;;;15.40;99.90;;;;;;5061380;28;20194;-69
2021/05/16 07:34:24;;;;;;;4.95;2.50;;;15.40;99.90;;;;;;5068579;28;20194;-70
2021/05/16 07:36:51;;;;;;;7.88;3.40;;;15.40;99.90;;;;;;5061696;28;20199;-70
2021/05/16 07:39:18;;;;;;;4.68;3.00;;;15.40;99.90;;;;;;5058184;28;20203;-70
2021/05/16 07:41:44;;;;;;;5.82;2.70;;;15.30;99.90;;;;;;5068821;28;20202;-70
2021/05/16 07:44:10;;;;;;;7.60;2.90;;;15.40;99.90;;;;;;5053117;28;20609;-70
2021/05/16 07:46:36;;;;;;;6.97;3.20;;;15.40;99.90;;;;;;5050833;28;20206;-70
2021/05/16 07:49:03;;;;;;;7.22;3.10;;;15.30;99.90;;;;;;5054353;28;20197;-70
2021/05/16 07:51:29;;;;;;;3.97;2.55;;;15.30;99.90;;;;;;5065867;28;20245;-70
2021/05/16 07:53:56;;;;;;;5.75;2.72;;;15.40;99.90;;;;;;5054275;28;20611;-70
2021/05/16 07:56:22;;;;;;;8.07;2.65;;;15.40;99.90;;;;;;5054450;28;20195;-70
2021/05/16 07:58:49;;;;;;;13.18;3.38;;;15.40;99.90;;;;;;5060021;28;20222;-70
2021/05/16 08:01:15;;;;;;;6.95;3.05;;;15.40;99.90;;;;;;5062555;28;20205;-70
2021/05/16 08:03:41;;;;;;;10.73;3.00;;;15.30;99.90;;;;;;5060022;28;20276;-70
2021/05/16 08:06:08;;;;;;;5.95;2.60;;;15.40;99.90;;;;;;5068478;28;20213;-70
2021/05/16 08:08:34;;;;;;;6.85;2.47;;;15.30;99.90;;;;;;5057887;28;20209;-70
2021/05/16 08:11:01;;;;;;;3.22;2.63;;;15.30;99.90;;;;;;5072103;28;20209;-70
2021/05/16 08:13:27;;;;;;;4.82;3.17;;;15.30;99.90;;;;;;5065367;28;20199;-69
2021/05/16 08:15:53;;;;;;;7.45;2.63;;;15.30;99.90;;;;;;5058013;28;20263;-69
2021/05/16 08:18:19;;;;;;;9.73;2.78;;;15.20;99.90;;;;;;5058884;28;20199;-69
2021/05/16 08:20:45;;;;;;;9.00;2.60;;;15.20;99.90;;;;;;5052593;28;20574;-69
2021/05/16 08:23:12;;;;;;;5.05;2.60;;;15.20;99.90;;;;;;5062618;28;20272;-69
2021/05/16 08:25:39;;;;;;;6.65;3.20;;;15.20;99.90;;;;;;5064228;28;20775;-69
2021/05/16 08:28:07;;;;;;;5.88;2.72;;;15.20;99.90;;;;;;5069676;28;20288;-69
2021/05/16 08:30:33;;;;;;;6.18;2.30;;;15.20;99.90;;;;;;5059152;28;20202;-69
2021/05/16 08:32:59;;;;;;;5.38;2.25;;;15.20;99.90;;;;;;5070139;28;20202;-69
2021/05/16 08:35:26;;;;;;;3.20;1.92;;;15.20;99.90;;;;;;5068867;28;20191;-69
2021/05/16 08:37:52;;;;;;;4.93;2.28;;;15.20;99.90;;;;;;5057011;28;20194;-68
2021/05/16 08:40:19;;;;;;;3.30;1.75;;;15.20;99.90;;;;;;5052587;28;20198;-70
2021/05/16 08:42:45;;;;;;;6.22;2.78;;;15.20;99.90;;;;;;5056745;28;20547;-68
2021/05/16 08:45:14;;;;;;;5.28;2.30;;;15.20;99.90;;;;;;5052770;28;20198;-68
2021/05/16 08:47:42;;;;;;;6.22;2.17;;;15.10;99.90;;;;;;5062140;28;20202;-70
2021/05/16 08:50:11;;;;;;;3.70;2.10;;;15.10;99.90;;;;;;5071275;28;20626;-69
2021/05/16 08:52:38;;;;;;;5.25;2.88;;;15.20;99.90;;;;;;5070522;28;20760;-69
2021/05/16 08:55:06;;;;;;;5.13;2.50;;;15.10;99.90;;;;;;5065593;28;20531;-69
2021/05/16 08:57:32;;;;;;;5.35;2.20;;;15.20;99.90;;;;;;5059529;28;20201;-70
2021/05/16 09:00:07;;;;;;;11.45;4.28;;;15.20;99.90;;;;;;5072599;28;20194;-68
2021/05/16 09:02:35;;;;;;;7.25;3.20;;;15.20;99.90;;;;;;5070626;28;20198;-68
2021/05/16 09:05:01;;;;;;;5.53;2.50;;;15.20;99.90;;;;;;5067397;28;20941;-69
2021/05/16 09:07:31;;;;;;;4.57;2.63;;;15.20;99.90;;;;;;5063757;28;20206;-68
2021/05/16 09:09:57;;;;;;;9.80;1.95;;;15.20;99.90;;;;;;5052365;28;20203;-69
2021/05/16 09:12:24;;;;;;;2.88;2.10;;;15.20;99.90;;;;;;5065122;28;20198;-69
2021/05/16 09:14:51;;;;;;;5.88;2.75;;;15.30;99.90;;;;;;5061823;28;20207;-69
2021/05/16 09:17:29;;;;;;;5.72;2.67;;;15.30;99.90;;;;;;5065737;28;20228;-69
2021/05/16 09:19:58;;;;;;;8.50;2.67;;;15.30;99.90;;;;;;5053154;28;20226;-69
2021/05/16 09:22:30;;;;;;;4.65;2.25;;;15.30;99.90;;;;;;5070619;28;20202;-69
2021/05/16 09:25:14;;;;;;;3.83;2.20;;;15.40;99.90;;;;;;5064365;28;20276;-69
2021/05/16 09:27:42;;;;;;;8.43;2.70;;;15.60;99.90;;;;;;5066670;28;20574;-69
2021/05/16 09:30:39;;;;;;;4.78;2.75;;;15.80;99.90;;;;;;5059374;28;20202;-69
2021/05/16 09:33:07;;;;;;;2.90;1.83;;;16.10;99.90;;;;;;5057715;28;20252;-69
2021/05/16 09:35:42;;;;;;;5.40;2.30;;;16.20;99.90;;;;;;5052028;28;20768;-69
2021/05/16 09:38:11;;;;;;;4.90;1.95;;;16.40;99.90;;;;;;5064290;28;20212;-69
2021/05/16 09:40:41;;;;;;;6.65;1.75;;;16.50;99.90;;;;;;5065646;28;20294;-69
2021/05/16 09:43:13;;;;;;;4.57;1.92;;;16.60;99.90;;;;;;5059119;28;20360;-69
2021/05/16 09:45:47;;;;;;;5.22;2.35;;;16.70;99.90;;;;;;5052785;28;20195;-69
2021/05/16 09:48:29;;;;;;;4.28;2.53;;;16.80;99.90;;;;;;5064729;28;20220;-69
2021/05/16 09:51:18;;;;;;;5.53;1.67;;;16.80;99.90;;;;;;5070449;28;20197;-69
2021/05/16 09:53:52;;;;;;;8.20;3.05;;;16.90;99.90;;;;;;5052024;28;20534;-69
2021/05/16 09:56:21;;;;;;;6.53;1.90;;;16.80;99.90;;;;;;5051402;28;20283;-69
2021/05/16 09:58:48;;;;;;;7.80;2.53;;;16.90;99.90;;;;;;5061406;28;20210;-69
2021/05/16 10:01:15;;;;;;;4.63;2.22;;;16.90;99.90;;;;;;5066448;28;20194;-70
2021/05/16 10:03:41;;;;;;;5.70;2.55;;;16.90;99.90;;;;;;5061760;28;20300;-70
2021/05/16 10:06:10;;;;;;;8.65;2.70;;;16.90;99.90;;;;;;5061955;28;20203;-69
2021/05/16 10:08:36;;;;;;;5.93;2.30;;;16.80;99.90;;;;;;5049441;28;20210;-69
2021/05/16 10:11:03;;;;;;;5.22;2.15;;;16.90;99.90;;;;;;5062720;28;20214;-69
2021/05/16 10:13:31;;;;;;;6.90;2.03;;;16.80;99.90;;;;;;5069786;28;20543;-70
2021/05/16 10:16:01;;;;;;;4.38;1.83;;;16.80;99.90;;;;;;5068441;28;20556;-69
2021/05/16 10:18:28;;;;;;;7.50;2.10;;;16.80;99.90;;;;;;5069968;28;20197;-69
2021/05/16 10:20:56;;;;;;;3.97;1.85;;;16.70;99.90;;;;;;5065956;28;20221;-69
2021/05/16 10:23:33;;;;;;;4.10;2.22;;;16.70;99.90;;;;;;5051136;28;20284;-69
2021/05/16 10:26:17;;;;;;;3.60;1.73;;;16.60;99.90;;;;;;5055231;28;20254;-69
2021/05/16 10:29:01;;;;;;;3.65;2.00;;;16.50;99.90;;;;;;5051988;28;20214;-69
2021/05/16 10:31:52;;;;;;;3.95;2.47;;;16.60;99.90;;;;;;5059157;28;20202;-70
2021/05/16 10:34:44;;;;;;;3.08;1.95;;;16.60;99.90;;;;;;5050646;28;20256;-69
2021/05/16 10:37:36;;;;;;;3.83;1.85;;;16.70;99.90;;;;;;5050559;28;20253;-69
2021/05/16 10:40:05;;;;;;;3.42;1.27;;;16.70;99.90;;;;;;5065685;28;20198;-69
2021/05/16 10:42:34;;;;;;;3.17;1.40;;;16.80;99.90;;;;;;5067857;28;20676;-69
2021/05/16 10:45:03;;;;;;;4.72;2.50;;;16.80;99.90;;;;;;5068313;28;20214;-69
2021/05/16 10:48:04;;;;;;;5.40;1.80;;;16.80;99.90;;;;;;5050672;28;20218;-69
2021/05/16 10:50:38;;;;;;;5.53;2.13;;;16.80;99.90;;;;;;5053083;28;20201;-70
2021/05/16 10:53:07;;;;;;;5.65;1.90;;;16.90;99.90;;;;;;5054738;28;20230;-69
2021/05/16 10:55:36;;;;;;;3.45;1.70;;;16.90;99.90;;;;;;5065236;28;20293;-69
2021/05/16 10:58:03;;;;;;;3.92;1.55;;;16.90;99.90;;;;;;5070758;28;20233;-69
2021/05/16 11:00:32;;;;;;;3.85;1.70;;;16.90;99.90;;;;;;5051522;28;20278;-69
2021/05/16 11:03:07;;;;;;;2.80;1.77;;;16.90;99.90;;;;;;5053776;28;20195;-69
2021/05/16 11:05:53;;;;;;;5.63;2.05;;;16.90;99.90;;;;;;5051066;28;20217;-69
2021/05/16 11:09:10;;;;;;;3.25;1.83;;;17.00;99.90;;;;;;5050998;28;20252;-69
2021/05/16 11:11:56;;;;;;;3.10;1.73;;;17.00;99.90;;;;;;5055521;28;20289;-70
2021/05/16 11:14:25;;;;;;;1.73;1.40;;;17.00;99.90;;;;;;5051347;28;20191;-70
2021/05/16 11:16:58;;;;;;;4.68;1.80;;;17.00;99.90;;;;;;5059911;28;20245;-70
2021/05/16 11:19:26;;;;;;;3.40;1.50;;;17.00;99.90;;;;;;5050305;28;20210;-70
2021/05/16 11:21:53;;;;;;;2.58;1.40;;;16.90;99.90;;;;;;5054784;28;20195;-69
2021/05/16 11:24:36;;;;;;;3.42;1.52;;;16.90;99.90;;;;;;5059911;28;20571;-70
2021/05/16 11:27:18;;;;;;;3.45;1.60;;;16.80;99.90;;;;;;5070050;28;20208;-69
2021/05/16 11:29:45;;;;;;;1.90;1.70;;;16.90;99.90;;;;;;5074496;28;20198;-69
2021/05/16 11:32:11;;;;;;;4.85;1.65;;;16.90;99.90;;;;;;5065099;28;20199;-69
2021/05/16 11:34:37;;;;;;;2.90;1.73;;;16.90;99.90;;;;;;5054161;28;20555;-69
2021/05/16 11:37:19;;;;;;;3.30;1.20;;;16.90;99.90;;;;;;5055607;28;20535;-69
2021/05/16 11:39:45;;;;;;;3.08;1.60;;;16.90;99.90;;;;;;5053167;28;20658;-69
2021/05/16 11:42:12;;;;;;;2.38;1.50;;;16.90;99.90;;;;;;5066427;28;20204;-69
2021/05/16 11:44:38;;;;;;;2.42;1.30;;;17.00;99.90;;;;;;5063654;28;20228;-69
2021/05/16 11:47:05;;;;;;;4.43;1.80;;;16.90;99.90;;;;;;5060784;28;20202;-69
2021/05/16 11:49:31;;;;;;;1.70;1.35;;;16.90;99.90;;;;;;5074137;28;20209;-69
2021/05/16 11:51:58;;;;;;;5.80;1.50;;;17.00;99.90;;;;;;5067303;28;20202;-69
2021/05/16 11:54:27;;;;;;;3.15;1.67;;;17.00;99.90;;;;;;5056684;28;20202;-69
2021/05/16 11:56:53;;;;;;;2.67;2.08;;;17.00;99.90;;;;;;5062266;28;20203;-69
2021/05/16 11:59:29;;;;;;;3.90;1.55;;;17.00;99.90;;;;;;5064752;28;20652;-69
2021/05/16 12:01:55;;;;;;;3.55;1.42;;;17.00;99.90;;;;;;5071223;28;20217;-69
2021/05/16 12:04:21;;;;;;;3.47;1.30;;;17.00;99.90;;;;;;5058330;28;20241;-69
2021/05/16 12:06:50;;;;;;;2.28;1.50;;;17.00;99.90;;;;;;5072486;28;20642;-69
2021/05/16 12:09:19;;;;;;;1.85;1.20;;;17.00;99.90;;;;;;5073144;28;20566;-70
2021/05/16 12:11:47;;;;;;;2.13;1.60;;;17.00;99.90;;;;;;5071392;28;20194;-69
2021/05/16 12:14:17;;;;;;;2.72;1.40;;;17.10;99.90;;;;;;5065665;28;20191;-69
2021/05/16 12:16:52;;;;;;;2.55;1.60;;;17.00;99.90;;;;;;5064313;28;20206;-69
2021/05/16 12:19:23;;;;;;;2.50;1.10;;;17.00;99.90;;;;;;5064904;28;20220;-69
2021/05/16 12:21:51;;;;;;;3.20;1.30;;;17.10;99.90;;;;;;5071405;28;20190;-69
2021/05/16 12:24:21;;;;;;;3.28;1.30;;;17.10;99.90;;;;;;5071025;28;20225;-69
2021/05/16 12:26:48;;;;;;;1.40;0.90;;;17.10;99.90;;;;;;5071807;28;20190;-69
2021/05/16 12:29:16;;;;;;;1.95;1.25;;;17.10;99.90;;;;;;5070422;28;20259;-69
2021/05/16 12:31:42;;;;;;;1.23;0.88;;;17.10;99.90;;;;;;5071980;28;20193;-68
2021/05/16 12:34:11;;;;;;;2.10;1.17;;;17.10;99.90;;;;;;5070495;28;20194;-70
2021/05/16 12:36:47;;;;;;;2.45;0.93;;;17.10;99.90;;;;;;5071601;28;20240;-70
2021/05/16 12:39:14;;;;;;;8.75;1.60;;;17.10;99.90;;;;;;5071822;28;20197;-70
2021/05/16 12:41:40;;;;;;;2.55;1.20;;;17.20;99.90;;;;;;5071291;28;20198;-69
2021/05/16 12:44:12;;;;;;;5.05;1.30;;;17.10;99.90;;;;;;5067345;28;20213;-70
2021/05/16 12:46:43;;;;;;;3.17;1.17;;;17.20;99.90;;;;;;5070118;28;20201;-74
2021/05/16 12:49:11;;;;;;;1.80;1.10;;;17.20;99.90;;;;;;5071871;28;20208;-71
2021/05/16 12:51:38;;;;;;;5.30;1.40;;;17.20;99.90;;;;;;5065988;28;20203;-71
2021/05/16 12:54:21;;;;;;;2.85;1.05;;;17.20;99.90;;;;;;5066847;28;20205;-71